Time;durP1;ratioP1;P1;durP2;ratioP2;P2;SDS_P1;SDS_P2;PMS_P1;PMS_P2;Temp;Humidity;BMP_temperature;BMP_pressure;BME280_temperature;BME280_humidity;BME280_pressure;Samples;Min_cycle;Max_cycle;Signal;HPM_P1;HPM_P2
2023/03/18 00:01:02;;;;;;;10.97;5.40;;;4.40;99.90;3.50;100444;;;;571572;251;24123;-78
2023/03/18 00:03:32;;;;;;;5.57;3.80;;;4.40;99.90;3.50;100440;;;;563244;251;24110;-77
2023/03/18 00:06:03;;;;;;;7.70;4.27;;;4.40;99.90;3.50;100439;;;;563140;251;24074;-77
2023/03/18 00:08:31;;;;;;;11.03;5.60;;;4.40;99.90;3.50;100432;;;;562954;251;24088;-75
2023/03/18 00:11:03;;;;;;;14.83;5.93;;;4.30;99.90;3.40;100434;;;;571747;249;24072;-78
2023/03/18 00:13:31;;;;;;;8.77;6.03;;;4.30;99.90;3.40;100432;;;;563763;250;24065;-76
2023/03/18 00:15:55;;;;;;;8.87;4.80;;;4.30;99.90;3.40;100444;;;;563919;250;24209;-75
2023/03/18 00:18:23;;;;;;;7.87;5.67;;;4.30;99.90;3.30;100429;;;;572456;248;24099;-75
2023/03/18 00:20:51;;;;;;;8.60;4.03;;;4.20;99.90;3.30;100423;;;;563771;251;24089;-78
2023/03/18 00:23:20;;;;;;;10.80;5.37;;;4.20;99.90;3.30;100420;;;;572215;249;24069;-75
2023/03/18 00:25:47;;;;;;;7.37;5.50;;;4.20;99.90;3.30;100409;;;;563706;251;24061;-74
2023/03/18 00:28:15;;;;;;;12.13;5.30;;;4.10;99.90;3.30;100418;;;;563566;251;24054;-75
2023/03/18 00:30:47;;;;;;;12.80;5.43;;;4.10;99.90;3.20;100418;;;;571973;251;24132;-75
2023/03/18 00:33:15;;;;;;;8.90;5.17;;;4.10;99.90;3.20;100412;;;;562938;251;24097;-77
2023/03/18 00:35:39;;;;;;;9.00;5.13;;;4.10;99.90;3.20;100411;;;;563006;251;24096;-74
2023/03/18 00:38:08;;;;;;;7.80;4.77;;;4.00;99.90;3.10;100409;;;;571891;248;24045;-73
2023/03/18 00:41:21;;;;;;;11.73;4.53;;;4.00;99.90;3.20;100416;;;;571814;249;24046;-74
2023/03/18 00:43:06;;;;;;;12.27;6.27;;;4.00;99.90;3.10;100412;;;;562843;250;24151;-76
2023/03/18 00:45:30;;;;;;;13.53;5.93;;;4.00;99.90;3.10;100410;;;;571248;251;24124;-75
2023/03/18 00:47:58;;;;;;;8.53;4.47;;;4.00;99.90;3.20;100404;;;;563042;251;24093;-74
2023/03/18 00:50:27;;;;;;;6.57;4.50;;;4.00;99.90;3.20;100412;;;;571405;248;24116;-74
2023/03/18 00:52:55;;;;;;;7.30;4.10;;;4.00;99.90;3.20;100406;;;;571574;249;24088;-77
2023/03/18 00:55:26;;;;;;;8.50;4.37;;;4.10;99.90;3.10;100411;;;;563109;251;24126;-75
2023/03/18 00:57:51;;;;;;;9.47;5.47;;;4.00;99.90;3.20;100406;;;;567024;249;24114;-75
2023/03/18 01:00:19;;;;;;;9.07;5.17;;;4.00;99.90;3.10;100399;;;;571868;248;24048;-76
2023/03/18 01:02:48;;;;;;;10.23;5.50;;;4.00;99.90;3.00;100393;;;;563141;251;24047;-77
2023/03/18 01:05:17;;;;;;;10.97;4.77;;;3.90;99.90;3.00;100391;;;;571670;251;24057;-73
2023/03/18 01:07:45;;;;;;;4.50;3.47;;;3.90;99.90;3.00;100391;;;;571903;251;24111;-76
2023/03/18 01:10:14;;;;;;;9.20;4.43;;;3.90;99.90;3.00;100395;;;;562956;251;24065;-78
2023/03/18 01:12:41;;;;;;;9.33;4.77;;;3.90;99.90;2.90;100387;;;;563273;251;28326;-76
2023/03/18 01:15:12;;;;;;;11.97;5.37;;;3.80;99.90;2.80;100390;;;;563299;250;24065;-78
2023/03/18 01:17:41;;;;;;;7.70;4.87;;;3.70;99.90;2.80;100391;;;;563143;249;24045;-77
2023/03/18 01:20:10;;;;;;;6.60;4.03;;;3.70;99.90;2.70;100379;;;;571610;249;24049;-78
2023/03/18 01:22:40;;;;;;;11.10;4.60;;;3.70;99.90;2.70;100383;;;;563220;251;24068;-76
2023/03/18 01:25:05;;;;;;;15.23;5.97;;;3.60;99.90;2.70;100372;;;;572553;249;24049;-78
2023/03/18 01:27:36;;;;;;;12.47;5.33;;;3.50;99.90;2.60;100366;;;;564220;250;24085;-74
2023/03/18 01:30:01;;;;;;;12.37;7.65;;;3.50;99.90;2.60;100370;;;;558854;251;35156;-73
2023/03/18 01:32:32;;;;;;;14.17;8.83;;;3.50;99.90;2.60;100370;;;;567532;249;35137;-77
2023/03/18 01:34:58;;;;;;;8.50;6.17;;;3.50;99.90;2.50;100376;;;;572041;249;24126;-73
2023/03/18 01:37:26;;;;;;;10.70;6.47;;;3.40;99.90;2.50;100364;;;;572223;249;25157;-73
2023/03/18 01:39:54;;;;;;;16.80;9.00;;;3.40;99.90;2.50;100361;;;;558811;251;35099;-73
2023/03/18 01:42:22;;;;;;;11.93;6.97;;;3.40;99.90;2.50;100375;;;;563591;251;24062;-73
2023/03/18 01:44:52;;;;;;;9.93;5.77;;;3.40;99.90;2.40;100375;;;;571509;249;24106;-73
2023/03/18 01:47:19;;;;;;;8.80;5.00;;;3.40;99.90;2.40;100371;;;;571425;251;24068;-74
2023/03/18 01:49:49;;;;;;;8.67;5.70;;;3.40;99.90;2.40;100370;;;;571445;251;24130;-72
2023/03/18 01:52:19;;;;;;;9.17;5.43;;;3.30;99.90;2.40;100372;;;;562992;251;24104;-73
2023/03/18 01:54:59;;;;;;;15.10;5.67;;;3.30;99.90;2.40;100373;;;;562845;247;24092;-75
2023/03/18 01:57:31;;;;;;;8.57;4.73;;;3.30;99.90;2.30;100375;;;;563240;251;24072;-74
2023/03/18 01:59:59;;;;;;;9.53;4.83;;;3.20;99.90;2.30;100363;;;;563043;248;24146;-72
2023/03/18 02:02:24;;;;;;;8.03;4.80;;;3.20;99.90;2.30;100365;;;;562897;251;24053;-73
2023/03/18 02:04:52;;;;;;;13.53;5.10;;;3.20;99.90;2.30;100364;;;;563145;251;24082;-73
2023/03/18 02:07:25;;;;;;;9.10;5.33;;;3.20;99.90;2.30;100360;;;;563215;250;24063;-74
2023/03/18 02:09:53;;;;;;;10.90;5.83;;;3.30;99.90;2.40;100357;;;;571615;248;24092;-73
2023/03/18 02:12:26;;;;;;;7.77;5.37;;;3.30;99.90;2.40;100363;;;;563191;251;24097;-75
2023/03/18 02:14:54;;;;;;;6.73;4.83;;;3.30;99.90;2.40;100359;;;;563240;250;24091;-73
2023/03/18 02:17:23;;;;;;;18.07;4.53;;;3.30;99.90;2.40;100359;;;;562782;251;24084;-74
2023/03/18 02:19:57;;;;;;;10.23;5.53;;;3.30;99.90;2.40;100358;;;;563164;251;24062;-74
2023/03/18 02:22:38;;;;;;;11.30;4.87;;;3.30;99.90;2.40;100358;;;;563186;251;24113;-75
2023/03/18 02:25:38;;;;;;;7.30;4.70;;;3.30;99.90;2.40;100363;;;;571517;248;24069;-73
2023/03/18 02:28:09;;;;;;;10.20;5.57;;;3.30;99.90;2.40;100361;;;;571422;251;24078;-74
2023/03/18 02:30:46;;;;;;;12.70;5.93;;;3.30;99.90;2.40;100367;;;;563220;251;24065;-74
2023/03/18 02:33:14;;;;;;;9.03;5.57;;;3.30;99.90;2.40;100368;;;;563223;251;24051;-75
2023/03/18 02:35:42;;;;;;;9.10;4.83;;;3.30;99.90;2.40;100371;;;;563702;250;24072;-74
2023/03/18 02:38:10;;;;;;;8.00;5.73;;;3.30;99.90;2.30;100364;;;;564127;250;24069;-75
2023/03/18 02:40:40;;;;;;;8.00;4.87;;;3.20;99.90;2.20;100365;;;;572199;248;24054;-74
2023/03/18 02:43:23;;;;;;;9.70;5.43;;;3.20;99.90;2.20;100364;;;;571981;249;24127;-75
2023/03/18 02:45:57;;;;;;;7.70;5.67;;;3.20;99.90;2.20;100358;;;;563730;251;24074;-73
2023/03/18 02:48:26;;;;;;;15.07;6.30;;;3.10;99.90;2.10;100357;;;;563600;251;24063;-74
2023/03/18 02:50:54;;;;;;;9.20;5.00;;;3.00;99.90;2.10;100365;;;;563612;251;24126;-74
2023/03/18 02:53:22;;;;;;;12.67;5.90;;;3.00;99.90;2.10;100359;;;;563585;251;24077;-73
2023/03/18 02:55:50;;;;;;;8.53;5.20;;;3.00;99.90;2.00;100358;;;;571975;249;24065;-77
2023/03/18 02:58:18;;;;;;;11.37;5.90;;;2.90;99.90;2.00;100358;;;;571660;247;24128;-75
2023/03/18 03:00:47;;;;;;;10.07;5.50;;;2.80;99.90;1.90;100359;;;;571618;249;24112;-77
2023/03/18 03:03:16;;;;;;;6.97;3.77;;;2.80;99.90;1.90;100375;;;;571925;247;24082;-75
2023/03/18 03:05:43;;;;;;;10.17;5.77;;;2.80;99.90;1.80;100361;;;;571923;249;24103;-77
2023/03/18 03:08:11;;;;;;;11.67;4.93;;;2.80;99.90;1.80;100367;;;;571953;249;24089;-75
2023/03/18 03:10:39;;;;;;;10.73;6.00;;;2.70;99.90;1.70;100358;;;;572025;249;24073;-74
2023/03/18 03:13:08;;;;;;;13.97;5.27;;;2.70;99.90;1.60;100349;;;;571645;248;24068;-77
2023/03/18 03:15:38;;;;;;;9.87;4.87;;;2.60;99.90;1.60;100343;;;;571666;249;24161;-74
2023/03/18 03:18:07;;;;;;;10.23;4.70;;;2.60;99.90;1.60;100353;;;;562739;251;24116;-74
2023/03/18 03:20:36;;;;;;;7.27;5.23;;;2.50;99.90;1.50;100345;;;;562779;251;24089;-74
2023/03/18 03:23:02;;;;;;;7.67;5.17;;;2.50;99.90;1.50;100357;;;;571527;251;24085;-77
2023/03/18 03:25:30;;;;;;;8.77;5.10;;;2.40;99.90;1.40;100354;;;;563136;251;24053;-79
2023/03/18 03:28:00;;;;;;;9.20;5.67;;;2.40;99.90;1.30;100356;;;;571618;249;24094;-78
2023/03/18 03:30:25;;;;;;;6.73;4.90;;;2.30;99.90;1.30;100353;;;;571334;251;24065;-77
2023/03/18 03:32:56;;;;;;;15.37;6.70;;;2.20;99.90;1.20;100355;;;;571647;248;24115;-74
2023/03/18 03:35:22;;;;;;;14.47;5.97;;;2.20;99.90;1.10;100347;;;;571360;251;24169;-74
2023/03/18 03:37:49;;;;;;;5.90;4.63;;;2.10;99.90;1.10;100346;;;;563175;251;24103;-72
2023/03/18 03:40:17;;;;;;;8.70;5.77;;;2.10;99.90;1.00;100349;;;;571640;248;24045;-72
2023/03/18 03:42:45;;;;;;;15.30;8.80;;;2.00;99.90;1.00;100347;;;;558274;251;35163;-74
2023/03/18 03:45:13;;;;;;;12.67;6.90;;;2.00;99.90;0.90;100341;;;;571156;249;25237;-72
2023/03/18 03:47:41;;;;;;;10.57;6.00;;;1.90;99.90;0.90;100339;;;;563714;250;24048;-72
2023/03/18 03:50:12;;;;;;;8.30;4.73;;;1.90;99.90;0.90;100332;;;;563804;250;24085;-74
2023/03/18 03:52:38;;;;;;;15.93;5.27;;;1.90;99.90;0.90;100351;;;;563520;251;24126;-77
2023/03/18 03:55:06;;;;;;;8.73;5.37;;;1.80;99.90;0.90;100349;;;;572111;249;24066;-77
2023/03/18 03:57:37;;;;;;;8.60;5.53;;;1.80;99.90;0.90;100342;;;;563614;251;24135;-75
2023/03/18 04:00:02;;;;;;;8.13;5.47;;;1.80;99.90;0.90;100335;;;;571475;251;24065;-72
2023/03/18 04:02:30;;;;;;;9.60;5.37;;;1.80;99.90;0.90;100337;;;;563286;249;24068;-74
2023/03/18 04:04:58;;;;;;;14.00;6.80;;;1.80;99.90;0.90;100330;;;;572217;247;25122;-73
2023/03/18 04:07:26;;;;;;;22.03;5.70;;;1.80;99.90;0.90;100324;;;;571885;249;24090;-74
2023/03/18 04:09:57;;;;;;;14.77;5.90;;;1.80;99.90;0.90;100322;;;;563478;251;24087;-74
2023/03/18 04:12:22;;;;;;;11.90;6.00;;;1.80;99.90;0.90;100332;;;;563233;251;24078;-77
2023/03/18 04:14:50;;;;;;;6.73;4.93;;;1.90;99.90;0.90;100332;;;;571967;248;24102;-79
2023/03/18 04:17:17;;;;;;;8.60;5.70;;;1.80;99.90;0.90;100326;;;;571899;249;24097;-73
2023/03/18 04:19:45;;;;;;;12.33;7.67;;;1.90;99.90;0.90;100342;;;;571901;249;24102;-73
2023/03/18 04:22:14;;;;;;;12.43;5.53;;;1.90;99.90;0.90;100335;;;;571984;249;24047;-75
2023/03/18 04:24:41;;;;;;;11.67;5.97;;;1.90;99.90;0.90;100336;;;;571593;249;24057;-73
2023/03/18 04:27:10;;;;;;;7.30;4.73;;;1.90;99.90;0.90;100335;;;;571769;249;24044;-78
2023/03/18 04:29:38;;;;;;;12.93;5.40;;;1.90;99.90;0.90;100320;;;;563198;251;24100;-77
2023/03/18 04:32:08;;;;;;;9.93;5.50;;;1.90;99.90;0.90;100321;;;;571561;251;24085;-74
2023/03/18 04:34:34;;;;;;;10.07;5.87;;;1.90;99.90;0.90;100317;;;;571436;251;24077;-77
2023/03/18 04:37:02;;;;;;;9.77;5.87;;;1.80;99.90;0.90;100313;;;;571552;251;24085;-75
2023/03/18 04:39:30;;;;;;;7.30;4.97;;;1.80;99.90;0.90;100315;;;;563237;251;24059;-79
2023/03/18 04:41:58;;;;;;;7.77;5.03;;;1.90;99.90;0.80;100315;;;;563223;251;24079;-78
2023/03/18 04:44:29;;;;;;;4.87;4.23;;;1.80;99.90;0.80;100315;;;;558491;251;24105;-78
2023/03/18 04:46:55;;;;;;;9.07;5.63;;;1.80;99.90;0.80;100307;;;;562627;251;24184;-76
2023/03/18 04:49:26;;;;;;;10.43;5.40;;;1.80;99.90;0.80;100314;;;;571223;249;24167;-78
2023/03/18 04:51:50;;;;;;;7.60;5.67;;;1.80;99.90;0.80;100304;;;;562716;251;25115;-77
2023/03/18 04:54:18;;;;;;;7.63;5.30;;;1.80;99.90;0.80;100301;;;;571261;248;24110;-75
2023/03/18 04:56:46;;;;;;;8.47;6.13;;;1.80;99.90;0.80;100319;;;;571632;249;24089;-75
2023/03/18 04:59:14;;;;;;;12.43;6.23;;;1.80;99.90;0.80;100319;;;;572104;247;24152;-76
2023/03/18 05:01:42;;;;;;;12.33;6.67;;;1.70;99.90;0.70;100309;;;;572471;248;24087;-77
2023/03/18 05:04:11;;;;;;;8.13;5.43;;;1.70;99.90;0.70;100312;;;;572142;248;24066;-76
2023/03/18 05:06:39;;;;;;;8.90;5.30;;;1.70;99.90;0.70;100312;;;;572401;249;24061;-74
2023/03/18 05:09:07;;;;;;;7.50;5.50;;;1.70;99.90;0.80;100306;;;;572160;247;24080;-76
2023/03/18 05:11:34;;;;;;;13.67;6.03;;;1.70;99.90;0.80;100307;;;;572122;248;24052;-78
2023/03/18 05:14:03;;;;;;;16.17;4.67;;;1.80;99.90;0.80;100307;;;;563624;251;24052;-76
2023/03/18 05:16:35;;;;;;;7.97;5.43;;;1.70;99.90;0.90;100306;;;;572065;248;24054;-75
2023/03/18 05:18:59;;;;;;;8.23;5.40;;;1.80;99.90;0.90;100308;;;;560376;251;24139;-73
2023/03/18 05:21:27;;;;;;;12.97;5.53;;;1.90;99.90;1.00;100304;;;;571889;249;24190;-75
2023/03/18 05:23:55;;;;;;;7.73;5.73;;;2.00;99.90;1.10;100306;;;;571892;249;24047;-77
2023/03/18 05:26:23;;;;;;;7.20;4.93;;;2.10;99.90;1.30;100300;;;;571955;249;24082;-77
2023/03/18 05:28:51;;;;;;;10.87;5.63;;;2.20;99.90;1.40;100301;;;;571857;251;24070;-75
2023/03/18 05:31:22;;;;;;;11.33;5.00;;;2.40;99.90;1.50;100314;;;;571803;251;24116;-74
2023/03/18 05:33:47;;;;;;;7.97;4.23;;;2.40;99.90;1.70;100305;;;;563255;251;24095;-74
2023/03/18 05:36:15;;;;;;;10.73;4.97;;;2.60;99.90;1.80;100305;;;;558505;251;24113;-75
2023/03/18 05:38:43;;;;;;;13.23;4.33;;;2.70;99.90;1.90;100304;;;;571569;251;24061;-72
2023/03/18 05:41:11;;;;;;;13.30;6.63;;;2.80;99.90;1.90;100307;;;;571683;249;24097;-73
2023/03/18 05:43:39;;;;;;;9.30;4.50;;;2.90;99.90;2.00;100310;;;;571556;251;24060;-74
2023/03/18 05:46:07;;;;;;;7.23;4.97;;;2.90;99.90;2.00;100306;;;;571697;249;24062;-77
2023/03/18 05:48:35;;;;;;;10.10;5.50;;;3.10;99.90;2.10;100306;;;;571307;249;24136;-74
2023/03/18 05:51:06;;;;;;;14.30;6.50;;;3.10;99.90;2.20;100312;;;;571309;249;24088;-74
2023/03/18 05:53:31;;;;;;;7.83;4.97;;;3.10;99.90;2.30;100312;;;;562437;251;24108;-74
2023/03/18 05:56:02;;;;;;;11.00;5.60;;;3.20;99.90;2.40;100305;;;;563254;251;24066;-73
2023/03/18 05:58:30;;;;;;;12.80;5.27;;;3.30;99.90;2.40;100302;;;;562578;251;24095;-73
2023/03/18 06:00:55;;;;;;;10.53;5.17;;;3.30;99.90;2.50;100304;;;;571080;251;24145;-74
2023/03/18 06:03:25;;;;;;;7.80;5.83;;;3.40;99.90;2.60;100311;;;;571337;248;24067;-75
2023/03/18 06:05:51;;;;;;;12.03;5.57;;;3.50;99.90;2.60;100314;;;;571225;249;24186;-74
2023/03/18 06:08:19;;;;;;;8.30;5.47;;;3.60;99.90;2.80;100309;;;;571602;248;24163;-72
2023/03/18 06:10:47;;;;;;;7.70;5.00;;;3.70;99.90;2.90;100311;;;;572497;249;24082;-75
2023/03/18 06:13:15;;;;;;;8.87;4.13;;;3.80;99.90;3.00;100295;;;;564478;250;24110;-75
2023/03/18 06:15:43;;;;;;;8.97;4.40;;;3.90;99.90;3.10;100291;;;;572509;249;24061;-73
2023/03/18 06:18:15;;;;;;;10.10;5.03;;;4.00;99.90;3.20;100295;;;;572446;249;24056;-74
2023/03/18 06:20:40;;;;;;;7.80;5.47;;;4.10;99.90;3.50;100296;;;;563381;251;24113;-73
2023/03/18 06:23:07;;;;;;;11.53;5.73;;;4.30;99.90;3.60;100300;;;;572145;249;24116;-75
2023/03/18 06:25:35;;;;;;;13.97;6.40;;;4.50;99.90;3.70;100305;;;;572172;248;24068;-76
2023/03/18 06:28:06;;;;;;;9.93;6.10;;;4.60;99.90;3.80;100308;;;;572157;249;24062;-77
2023/03/18 06:30:31;;;;;;;9.70;5.13;;;4.70;99.90;3.80;100307;;;;571647;249;24105;-74
2023/03/18 06:32:58;;;;;;;11.67;5.20;;;4.70;99.90;3.80;100307;;;;571935;249;24066;-73
2023/03/18 06:35:27;;;;;;;10.03;4.13;;;4.70;99.90;3.80;100310;;;;563457;251;24058;-76
2023/03/18 06:37:57;;;;;;;7.13;4.83;;;4.70;99.90;3.80;100318;;;;572064;249;24067;-77
2023/03/18 06:40:23;;;;;;;13.10;5.67;;;4.80;99.90;3.90;100320;;;;571730;249;24078;-76
2023/03/18 06:42:54;;;;;;;8.73;4.60;;;4.80;99.90;4.00;100312;;;;571969;250;24097;-78
2023/03/18 06:45:19;;;;;;;10.10;5.83;;;4.90;99.90;4.10;100317;;;;560737;251;24107;-74
2023/03/18 06:47:48;;;;;;;10.93;5.67;;;4.90;99.90;4.20;100324;;;;571861;249;24108;-76
2023/03/18 06:50:14;;;;;;;7.13;5.10;;;5.10;99.90;4.50;100322;;;;571346;249;24069;-76
2023/03/18 06:52:42;;;;;;;8.60;5.60;;;5.30;99.90;5.10;100335;;;;562835;251;24163;-75
2023/03/18 06:55:10;;;;;;;11.30;5.87;;;5.70;99.90;5.60;100330;;;;571675;248;24053;-73
2023/03/18 06:57:40;;;;;;;8.63;5.63;;;6.60;99.90;5.90;100336;;;;562957;251;25130;-76
2023/03/18 07:00:07;;;;;;;10.70;4.60;;;6.60;99.90;5.90;100331;;;;571262;249;24160;-78
2023/03/18 07:02:36;;;;;;;15.20;6.67;;;6.60;99.90;5.70;100340;;;;571289;251;24068;-74
2023/03/18 07:05:08;;;;;;;12.97;7.17;;;6.60;99.90;5.60;100335;;;;571285;249;24049;-76
2023/03/18 07:07:32;;;;;;;11.47;5.90;;;6.50;99.90;5.60;100337;;;;570973;251;25195;-73
2023/03/18 07:10:04;;;;;;;16.90;7.40;;;6.50;99.90;5.50;100341;;;;571667;248;24152;-74
2023/03/18 07:12:28;;;;;;;10.40;6.17;;;6.40;99.90;5.60;100345;;;;560238;251;24091;-74
2023/03/18 07:14:56;;;;;;;12.63;6.80;;;6.40;99.90;5.80;100341;;;;571713;249;24050;-75
2023/03/18 07:17:24;;;;;;;11.63;6.17;;;6.60;99.90;6.00;100346;;;;571792;249;24095;-72
2023/03/18 07:19:56;;;;;;;11.27;5.27;;;6.90;99.90;6.10;100344;;;;563225;251;24081;-76
2023/03/18 07:22:23;;;;;;;14.27;5.83;;;6.90;99.90;6.30;100350;;;;564019;250;24104;-77
2023/03/18 07:24:55;;;;;;;11.73;5.70;;;7.10;99.90;6.50;100357;;;;572834;248;24111;-78
2023/03/18 07:27:19;;;;;;;12.40;5.37;;;7.30;99.90;7.00;100365;;;;563805;251;24111;-77
2023/03/18 07:29:47;;;;;;;12.63;6.33;;;7.60;99.90;7.50;100353;;;;572485;249;24188;-78
2023/03/18 07:32:19;;;;;;;11.27;6.03;;;8.20;99.90;7.90;100358;;;;572114;247;24063;-75
2023/03/18 07:34:47;;;;;;;8.40;6.60;;;8.90;99.90;8.20;100361;;;;563332;251;24078;-73
2023/03/18 07:37:11;;;;;;;10.60;6.33;;;8.90;99.90;8.20;100354;;;;561773;251;24068;-74
2023/03/18 07:39:39;;;;;;;15.67;7.07;;;9.00;99.90;8.20;100359;;;;572026;251;25129;-77
2023/03/18 07:42:08;;;;;;;11.47;6.13;;;9.10;99.90;8.00;100348;;;;571897;249;24060;-73
2023/03/18 07:44:36;;;;;;;7.73;5.90;;;8.90;99.80;7.80;100346;;;;571839;251;24063;-75
2023/03/18 07:47:03;;;;;;;15.70;7.70;;;8.80;99.90;7.80;100351;;;;571981;249;24105;-77
2023/03/18 07:49:31;;;;;;;8.87;5.50;;;8.70;99.90;7.60;100348;;;;549873;253;24240;-78
2023/03/18 07:52:00;;;;;;;7.43;6.20;;;8.40;99.90;7.50;100345;;;;549517;258;24160;-76
2023/03/18 07:54:28;;;;;;;10.27;6.53;;;8.40;99.90;7.30;100348;;;;551037;257;24127;-75
2023/03/18 07:56:55;;;;;;;11.23;6.23;;;8.20;99.90;7.30;100339;;;;541281;262;24123;-74
2023/03/18 07:59:24;;;;;;;11.03;6.33;;;8.10;99.90;7.30;100347;;;;540913;262;24161;-73
2023/03/18 08:01:51;;;;;;;12.07;6.83;;;8.10;99.90;7.30;100343;;;;550858;257;24128;-74
2023/03/18 08:04:19;;;;;;;12.37;7.33;;;8.20;99.90;7.40;100338;;;;550581;257;24101;-74
2023/03/18 08:06:48;;;;;;;9.70;5.87;;;8.20;99.90;7.60;100326;;;;541015;262;24161;-74
2023/03/18 08:09:16;;;;;;;10.17;6.17;;;8.40;99.90;7.60;100335;;;;540979;262;24175;-73
2023/03/18 08:11:44;;;;;;;7.57;5.03;;;8.40;99.90;7.70;100332;;;;541055;262;24124;-78
2023/03/18 08:14:12;;;;;;;8.83;6.23;;;8.50;99.90;7.90;100335;;;;541050;262;24150;-77
2023/03/18 08:16:40;;;;;;;9.93;6.57;;;8.60;99.90;8.20;100337;;;;540894;262;24195;-73
2023/03/18 08:19:07;;;;;;;12.53;5.63;;;8.90;99.90;8.40;100312;;;;541280;262;24113;-76
2023/03/18 08:21:40;;;;;;;13.90;6.00;;;9.20;99.00;8.60;100324;;;;541287;262;24128;-75
2023/03/18 08:24:03;;;;;;;9.50;6.03;;;9.40;98.10;8.70;100334;;;;541183;262;24190;-74
2023/03/18 08:26:32;;;;;;;10.20;6.40;;;9.70;97.40;8.90;100322;;;;539509;259;24162;-76
2023/03/18 08:29:01;;;;;;;11.53;7.03;;;9.90;97.00;9.30;100311;;;;539154;258;24126;-74
2023/03/18 08:31:29;;;;;;;14.23;6.90;;;9.90;97.00;9.40;100321;;;;551054;257;24111;-74
2023/03/18 08:33:59;;;;;;;10.53;7.10;;;10.10;96.40;9.60;100316;;;;541701;261;24111;-73
2023/03/18 08:36:28;;;;;;;8.50;5.93;;;10.30;96.10;10.30;100330;;;;542330;261;24228;-75
2023/03/18 08:38:52;;;;;;;12.83;6.53;;;10.90;95.00;10.70;100334;;;;542071;261;24157;-73
2023/03/18 08:41:24;;;;;;;11.53;7.03;;;11.60;92.50;10.80;100324;;;;539490;262;24181;-72
2023/03/18 08:43:51;;;;;;;10.20;7.13;;;12.10;91.70;11.40;100305;;;;541269;262;24169;-75
2023/03/18 08:46:21;;;;;;;8.90;6.47;;;12.10;91.50;12.30;100313;;;;559240;254;24196;-73
2023/03/18 08:48:46;;;;;;;13.03;7.87;;;12.90;89.80;13.50;100313;;;;548877;257;24095;-75
2023/03/18 08:51:15;;;;;;;15.33;6.90;;;13.90;88.10;14.90;100320;;;;548275;258;24079;-78
2023/03/18 08:53:42;;;;;;;10.10;7.50;;;15.30;82.70;15.90;100307;;;;548325;258;24152;-73
2023/03/18 08:56:11;;;;;;;11.90;7.47;;;16.50;74.60;16.10;100314;;;;548370;256;24106;-73
2023/03/18 08:58:38;;;;;;;10.03;6.70;;;17.00;69.70;16.20;100330;;;;548024;258;24140;-74
2023/03/18 09:01:06;;;;;;;11.87;7.43;;;17.10;67.20;16.50;100323;;;;548073;257;24096;-74
2023/03/18 09:03:34;;;;;;;10.83;7.73;;;17.30;65.60;16.30;100315;;;;547908;258;24111;-76
2023/03/18 09:06:02;;;;;;;10.67;7.83;;;17.40;62.80;16.10;100321;;;;548005;258;24150;-72
2023/03/18 09:08:31;;;;;;;10.63;8.03;;;17.20;62.40;16.30;100318;;;;559158;254;24138;-74
2023/03/18 09:11:01;;;;;;;9.77;6.97;;;17.30;61.70;16.20;100315;;;;550828;257;24126;-73
2023/03/18 09:13:28;;;;;;;13.03;7.23;;;17.20;61.60;16.70;100322;;;;548535;262;24116;-73
2023/03/18 09:15:56;;;;;;;9.73;7.03;;;17.50;61.40;16.60;100317;;;;548896;261;24245;-77
2023/03/18 09:18:21;;;;;;;10.50;7.30;;;17.70;59.60;16.30;100316;;;;550743;257;24106;-74
2023/03/18 09:20:52;;;;;;;10.27;7.03;;;17.50;59.60;15.90;100299;;;;547621;258;24132;-75
2023/03/18 09:23:17;;;;;;;12.17;7.90;;;17.20;59.40;15.00;100290;;;;555502;258;24132;-74
2023/03/18 09:25:49;;;;;;;16.33;7.60;;;16.40;60.40;14.50;100303;;;;547644;258;24099;-73
2023/03/18 09:28:15;;;;;;;11.37;7.87;;;15.80;62.30;13.90;100305;;;;547602;258;24110;-73
2023/03/18 09:30:43;;;;;;;14.70;8.73;;;15.20;64.40;13.40;100301;;;;547866;258;24135;-74
2023/03/18 09:33:12;;;;;;;10.73;7.70;;;14.60;65.40;13.00;100304;;;;547774;258;24150;-74
2023/03/18 09:35:40;;;;;;;9.60;7.50;;;14.10;66.90;12.80;100301;;;;547785;258;24094;-74
2023/03/18 09:38:10;;;;;;;11.83;7.30;;;13.80;68.00;12.50;100302;;;;558889;257;24164;-76
2023/03/18 09:40:39;;;;;;;14.40;6.90;;;13.50;68.40;12.20;100297;;;;550830;257;24140;-75
2023/03/18 09:43:34;;;;;;;12.03;7.87;;;13.10;70.20;12.20;100286;;;;547508;258;24120;-75
2023/03/18 09:46:08;;;;;;;13.47;7.73;;;13.00;71.40;12.20;100288;;;;553361;257;24089;-74
2023/03/18 09:48:44;;;;;;;17.70;7.53;;;13.00;72.10;12.10;100292;;;;548716;256;24090;-78
2023/03/18 09:51:42;;;;;;;13.70;7.53;;;12.90;72.30;12.00;100287;;;;549670;258;24204;-77
2023/03/18 09:54:22;;;;;;;10.77;6.47;;;12.80;72.30;11.80;100289;;;;548732;258;24133;-78
2023/03/18 09:56:50;;;;;;;15.70;8.03;;;12.60;72.00;11.60;100284;;;;548271;258;24148;-78
2023/03/18 09:59:21;;;;;;;10.87;7.10;;;12.40;72.80;11.50;100283;;;;556146;258;24104;-78
2023/03/18 10:01:49;;;;;;;14.83;7.43;;;12.30;73.40;11.50;100278;;;;555326;258;24126;-79
2023/03/18 10:04:40;;;;;;;11.77;7.47;;;12.30;74.10;11.60;100282;;;;555956;256;24130;-75
2023/03/18 10:07:14;;;;;;;11.80;6.90;;;12.40;74.30;11.70;100287;;;;547903;258;24208;-75
2023/03/18 10:09:45;;;;;;;13.07;6.70;;;12.40;74.50;11.60;100294;;;;555878;256;24120;-75
2023/03/18 10:12:16;;;;;;;12.57;7.50;;;12.40;74.40;11.60;100288;;;;556034;258;24138;-75
2023/03/18 10:15:20;;;;;;;12.85;8.55;;;12.30;75.20;11.70;100279;;;;550488;258;35362;-75
2023/03/18 10:18:09;;;;;;;10.77;7.50;;;12.40;76.10;11.70;100280;;;;548863;262;24116;-73
2023/03/18 10:21:07;;;;;;;11.20;7.43;;;12.50;75.50;11.80;100275;;;;543659;261;24155;-75
2023/03/18 10:23:41;;;;;;;13.67;7.57;;;12.50;74.60;11.70;100277;;;;539952;262;24160;-74
2023/03/18 10:26:18;;;;;;;9.43;6.03;;;12.50;74.30;11.50;100258;;;;554486;258;26317;-74
2023/03/18 10:29:10;;;;;;;12.97;7.10;;;12.10;75.00;11.20;100264;;;;547400;258;24112;-75
2023/03/18 10:32:05;;;;;;;12.67;7.73;;;12.00;74.80;10.90;100262;;;;547721;258;24122;-74
2023/03/18 10:34:45;;;;;;;11.67;7.13;;;11.80;76.10;10.90;100248;;;;547657;258;24151;-74
2023/03/18 10:37:32;;;;;;;12.60;6.97;;;11.70;77.30;10.80;100249;;;;547218;258;24108;-75
2023/03/18 10:39:59;;;;;;;7.27;5.80;;;11.60;77.40;10.80;100247;;;;556109;256;24088;-74
2023/03/18 10:42:27;;;;;;;12.33;6.73;;;11.60;77.60;10.70;100240;;;;547705;258;24100;-77
2023/03/18 10:44:55;;;;;;;14.03;7.60;;;11.50;77.60;10.60;100235;;;;547726;258;24176;-76
2023/03/18 10:47:23;;;;;;;12.90;7.97;;;11.40;78.30;10.40;100226;;;;554954;258;24145;-78
2023/03/18 10:50:05;;;;;;;14.00;7.50;;;11.20;78.40;10.50;100229;;;;553855;258;24106;-77
2023/03/18 10:52:51;;;;;;;14.20;7.83;;;11.20;79.10;10.50;100232;;;;547782;258;24104;-74
2023/03/18 10:55:20;;;;;;;11.83;6.70;;;11.40;79.80;10.70;100232;;;;548127;255;24175;-74
2023/03/18 10:57:48;;;;;;;11.77;8.03;;;11.40;79.80;10.80;100238;;;;556902;253;24146;-74
2023/03/18 11:00:28;;;;;;;13.97;8.27;;;11.50;79.90;10.90;100233;;;;549082;257;24091;-74
2023/03/18 11:02:56;;;;;;;16.63;7.87;;;11.60;80.40;11.00;100232;;;;548779;258;24296;-77
2023/03/18 11:05:27;;;;;;;12.10;8.47;;;11.70;80.80;11.10;100237;;;;556837;256;24131;-74
2023/03/18 11:08:07;;;;;;;14.83;7.20;;;11.80;80.80;11.20;100242;;;;556484;258;24141;-74
2023/03/18 11:10:39;;;;;;;9.20;6.60;;;11.90;80.90;11.40;100250;;;;548688;258;24135;-76
2023/03/18 11:13:05;;;;;;;12.77;7.17;;;12.10;79.40;11.40;100242;;;;556338;258;24158;-74
2023/03/18 11:15:40;;;;;;;11.47;7.03;;;12.10;78.40;11.50;100240;;;;548536;258;24119;-74
2023/03/18 11:18:04;;;;;;;9.53;5.77;;;12.20;77.60;11.50;100248;;;;555331;258;24162;-74
2023/03/18 11:20:36;;;;;;;11.47;6.73;;;12.20;77.40;11.70;100252;;;;547934;256;24099;-73
2023/03/18 11:23:10;;;;;;;11.07;6.97;;;12.30;77.40;11.70;100252;;;;555630;258;24121;-75
2023/03/18 11:25:29;;;;;;;9.73;7.43;;;12.40;77.00;11.70;100248;;;;555400;258;24135;-77
2023/03/18 11:28:02;;;;;;;13.97;6.47;;;12.40;76.90;11.70;100232;;;;548130;256;24103;-73